METAR Data
IDs: Format: Raw Decoded Include TAF

Data at: 0149 UTC 26 Apr 2019

PATA 260052Z 30010KT 10SM FEW060 FEW200 06/M07 A3024 RMK AO2 SLP246 T00611067
PATA 252352Z 29007KT 10SM FEW200 06/M07 A3025 RMK AO2 SLP247 T00611067 10061 21022 55003
PATA 252252Z 24005KT 10SM FEW200 04/M06 A3025 RMK AO2 SLP247 T00441056
PATA 252152Z COR VRB05KT 10SM FEW200 04/M06 A3025 RMK AO2 SLP248 T00391056
PATA 252052Z 25006KT 10SM CLR 03/M06 A3026 RMK AO2 SLP250 T00281061 57002
PATA 251952Z 22003KT 10SM CLR 02/M07 A3026 RMK AO2 SLP251 T00171067
PATA 251852Z 00000KT 10SM CLR 01/M07 A3026 RMK AO2 SLP252 T00061067
PATA 251752Z 00000KT 10SM CLR M01/M07 A3026 RMK AO2 SLP252 4/003 933014 I6000 T10111067 11011 21083 53001
PATA 251652Z 23003KT 10SM CLR M05/M07 A3026 RMK AO2 SLP252 T10501067
PATA 251552Z 00000KT 10SM CLR M05/M07 A3026 RMK AO2 SLP251 T10501072
PATA 251452Z 30003KT 10SM CLR M07/M09 A3026 RMK AO2 SLP252 I3000 T10721089 53003
PATA 251352Z 01006KT 10SM CLR M08/M09 A3025 RMK AO2 SLP249 I1000 T10781094
PATA 251252Z AUTO 36005KT 10SM CLR M07/M09 A3025 RMK AO2 SLP249 T10721089 TSNO
PATA 251152Z AUTO 33003KT 10SM CLR M07/M08 A3025 RMK AO2 SLP249 T10671083 10000 21067 51005 TSNO
PATA 251052Z AUTO 03003KT 10SM CLR M06/M08 A3025 RMK AO2 SLP248 T10611078 TSNO
PATA 250952Z AUTO 03003KT 10SM CLR M06/M07 A3024 RMK AO2 SLP246 T10611072 TSNO
PATA 250852Z AUTO 00000KT 10SM CLR M03/M05 A3024 RMK AO2 SLP244 T10331050 400281039 51010 TSNO
PATA 250752Z AUTO 00000KT 10SM CLR M02/M06 A3023 RMK AO2 SLP242 T10221056 TSNO
PATA 250652Z AUTO 07004KT 10SM CLR M01/M05 A3022 RMK AO2 SLP237 T10111050 TSNO
PATA 250552Z AUTO 09007KT 10SM FEW039 00/M04 A3021 RMK AO2 SLP234 T00001044 10028 20000 53008 TSNO
PATA 250452Z 10010KT 10SM FEW039 01/M04 A3019 RMK AO2 SLP229 T00111039
PATA 250352Z 08007KT 10SM FEW039 02/M03 A3019 RMK AO2 SLP227 T00171033
PATA 250252Z 11006KT 10SM SCT037 02/M03 A3018 RMK AO2 SLP226 T00221033 51004
PATA 250152Z COR 10008KT 10SM BKN039 02/M03 A3018 RMK AO2 SLP225 T00171033
PATA 250113Z 09008KT 10SM OVC031 02/M03 A3018 RMK AO2 T00171033
PATA 250052Z 11006KT 10SM BKN029 02/M03 A3018 RMK AO2 SLP224 T00171033
PATA 242352Z 09005KT 10SM BKN026 02/M03 A3017 RMK AO2 SLP222 T00171033 10017 21022 52007
PATA 242252Z 08008KT 10SM BKN023 01/M03 A3017 RMK AO2 SLP220 T00111033
PATA 242152Z 09007KT 10SM BKN022 01/M04 A3016 RMK AO2 SLP218 T00061039
PATA 242133Z 09007KT 10SM BKN021 OVC034 01/M04 A3016 RMK AO2 T00061039
PATA 242052Z 09009KT 10SM OVC036 00/M04 A3015 RMK AO2 SNE1957 SLP215 T00001039 53013
PATA 241952Z 10007KT 4SM -SN OVC036 M01/M04 A3014 RMK AO2 SNB44 SLP210 T10111039
PATA 241852Z 10006KT 5SM HZ BKN046 OVC055 M02/M04 A3011 RMK AO2 SNE49 SLP202 T10171044
PATA 241847Z 09006KT 4SM -SN BKN046 OVC055 M02/M04 A3011 RMK AO2
PATA 241806Z 11006KT 2SM -SN BR FEW030 BKN043 OVC050 M02/M04 A3010 RMK AO2 T10221044
PATA 241752Z 09007KT 3SM -SN BR SCT030 BKN042 OVC050 M02/M04 A3010 RMK AO2 SLP198 4/004 933015 T10221044 11017 21028 52018
PATA 241652Z 09007KT 4SM -SN SCT033 BKN041 OVC050 M02/M05 A3009 RMK AO2 SNE21B37 SLP193 T10221050
PATA 241616Z 10006KT 4SM -SN BR OVC055 M03/M04 A3007 RMK AO2 T10281044
PATA 241601Z 10007KT 2SM -SN BR BKN044 OVC055 M03/M04 A3007 RMK AO2 T10281044
PATA 241550Z 10007KT 1 3/4SM -SN BR BKN039 OVC055 M03/M04 A3006 RMK AO2 SNB1459 SLP185 T10281044
PATA 241549Z 10007KT 1 3/4SM -SN BR BKN039 BKN049 OVC055 M03/M04 A3006 RMK AO2 SNB1459
PATA 241524Z 10005KT 3SM -SN BR BKN044 OVC060 M03/M04 A3006 RMK AO2 SNB1459 T10281044
PATA 241516Z 10008KT 2 1/2SM -SN BR OVC044 M03/M04 A3005 RMK AO2 SNB1459 T10281044
PATA 241452Z 11008KT 10SM OVC050 M03/M05 A3005 RMK AO2 SLP180 T10281050 53017
PATA 241352Z AUTO 10009KT 10SM OVC060 M02/M04 A3003 RMK AO2 SNE31 SLP174 T10221044 TSNO